Time;durP1;ratioP1;P1;durP2;ratioP2;P2;SDS_P1;SDS_P2;PMS_P1;PMS_P2;Temp;Humidity;BMP_temperature;BMP_pressure;BME280_temperature;BME280_humidity;BME280_pressure;Samples;Min_cycle;Max_cycle;Signal;HPM_P1;HPM_P2
2023/03/03 00:00:22;;;;;;;13.25;9.70;;;5.40;69.00;;;;;;4991085;28;20461;-62
2023/03/03 00:02:48;;;;;;;13.02;9.32;;;5.40;69.00;;;;;;4975010;28;20791;-60
2023/03/03 00:05:15;;;;;;;13.77;9.23;;;5.50;69.00;;;;;;4976464;28;20046;-59
2023/03/03 00:07:45;;;;;;;11.20;8.73;;;5.50;69.10;;;;;;4973305;28;20025;-62
2023/03/03 00:10:12;;;;;;;13.77;9.07;;;5.50;68.90;;;;;;4971491;28;20038;-62
2023/03/03 00:12:48;;;;;;;10.15;7.60;;;5.60;68.90;;;;;;4973839;28;20030;-55
2023/03/03 00:15:19;;;;;;;11.73;9.05;;;5.60;68.90;;;;;;4973685;28;20031;-56
2023/03/03 00:17:46;;;;;;;12.90;9.88;;;5.60;68.90;;;;;;4976443;28;20027;-59
2023/03/03 00:20:35;;;;;;;14.10;9.68;;;5.60;69.20;;;;;;4968841;28;20133;-60
2023/03/03 00:23:29;;;;;;;12.93;9.15;;;5.60;69.10;;;;;;4978435;28;20140;-63
2023/03/03 00:25:55;;;;;;;11.70;9.20;;;5.70;69.00;;;;;;4972616;28;20042;-62
2023/03/03 00:28:30;;;;;;;12.60;9.65;;;5.70;69.10;;;;;;4979885;28;20026;-62
2023/03/03 00:31:02;;;;;;;11.50;8.13;;;5.80;68.80;;;;;;4974750;28;20039;-61
2023/03/03 00:33:42;;;;;;;11.35;8.38;;;5.70;68.80;;;;;;4975408;28;20058;-62
2023/03/03 00:36:13;;;;;;;11.68;8.68;;;5.70;69.00;;;;;;4968908;28;20031;-62
2023/03/03 00:38:39;;;;;;;11.50;8.85;;;5.60;69.10;;;;;;4966750;28;20080;-60
2023/03/03 00:41:24;;;;;;;10.15;8.05;;;5.60;69.30;;;;;;4972823;28;20031;-61
2023/03/03 00:43:51;;;;;;;11.27;8.57;;;5.50;69.40;;;;;;4973438;28;20043;-61
2023/03/03 00:46:19;;;;;;;14.48;9.50;;;5.50;69.50;;;;;;4975321;28;20652;-54
2023/03/03 00:48:46;;;;;;;12.43;8.43;;;5.50;69.60;;;;;;4968582;28;20034;-55
2023/03/03 00:51:20;;;;;;;11.30;9.13;;;5.50;69.60;;;;;;4973792;28;20532;-61
2023/03/03 00:53:45;;;;;;;13.02;10.02;;;5.40;69.60;;;;;;4979285;28;20481;-61
2023/03/03 00:56:11;;;;;;;13.93;9.25;;;5.40;69.80;;;;;;4973576;28;20035;-59
2023/03/03 00:58:36;;;;;;;12.45;8.90;;;5.50;69.90;;;;;;4979760;28;20041;-59
2023/03/03 01:01:02;;;;;;;12.70;9.55;;;5.50;69.80;;;;;;4983978;28;20038;-52
2023/03/03 01:03:28;;;;;;;10.00;7.38;;;5.60;69.70;;;;;;4965199;28;20030;-53
2023/03/03 01:05:54;;;;;;;11.57;8.82;;;5.60;69.60;;;;;;4976968;28;20038;-60
2023/03/03 01:08:21;;;;;;;11.70;8.50;;;5.70;69.50;;;;;;4977348;28;20037;-60
2023/03/03 01:10:59;;;;;;;10.98;7.88;;;5.70;69.50;;;;;;4977794;28;20081;-61
2023/03/03 01:13:31;;;;;;;13.23;9.60;;;5.80;69.30;;;;;;4968634;28;20027;-61
2023/03/03 01:15:59;;;;;;;12.95;8.63;;;5.80;69.20;;;;;;4972877;28;20045;-62
2023/03/03 01:18:25;;;;;;;11.55;8.60;;;5.80;69.20;;;;;;4971928;28;20458;-62
2023/03/03 01:20:51;;;;;;;15.38;9.90;;;5.80;69.20;;;;;;4972018;28;20069;-61
2023/03/03 01:23:16;;;;;;;14.73;10.20;;;5.80;69.10;;;;;;4981948;28;20046;-60
2023/03/03 01:25:42;;;;;;;13.50;9.48;;;5.80;69.40;;;;;;4957914;28;20019;-57
2023/03/03 01:28:08;;;;;;;14.65;10.02;;;5.90;69.30;;;;;;4972266;28;20555;-56
2023/03/03 01:30:35;;;;;;;11.57;9.13;;;6.00;69.20;;;;;;4989484;28;20421;-63
2023/03/03 01:33:01;;;;;;;11.88;9.75;;;6.10;69.10;;;;;;4977195;28;20490;-62
2023/03/03 01:35:26;;;;;;;12.85;9.40;;;6.20;68.90;;;;;;4977916;28;20034;-53
2023/03/03 01:37:52;;;;;;;12.30;9.68;;;6.20;68.60;;;;;;4975271;28;20460;-53
2023/03/03 01:40:24;;;;;;;12.32;9.07;;;6.30;68.50;;;;;;4971816;28;20027;-55
2023/03/03 01:42:51;;;;;;;11.60;9.55;;;6.30;68.40;;;;;;4978210;28;20047;-56
2023/03/03 01:45:20;;;;;;;11.85;9.35;;;6.40;68.50;;;;;;4974154;28;20018;-61
2023/03/03 01:48:09;;;;;;;14.65;9.05;;;6.40;68.20;;;;;;4977698;28;20150;-60
2023/03/03 01:50:49;;;;;;;10.85;8.40;;;6.50;68.10;;;;;;4969524;28;20039;-55
2023/03/03 01:53:19;;;;;;;11.65;8.75;;;6.50;67.90;;;;;;4978409;28;20114;-54
2023/03/03 01:55:48;;;;;;;13.75;9.57;;;6.50;67.80;;;;;;4976222;28;20034;-61
2023/03/03 01:58:18;;;;;;;12.05;8.77;;;6.50;67.80;;;;;;4978459;28;20055;-62
2023/03/03 02:00:49;;;;;;;10.93;8.65;;;6.50;67.70;;;;;;4980062;28;20039;-61
2023/03/03 02:03:15;;;;;;;12.55;9.80;;;6.40;67.80;;;;;;4977166;28;20371;-62
2023/03/03 02:05:42;;;;;;;11.40;8.60;;;6.40;67.80;;;;;;4979712;28;20035;-62
2023/03/03 02:08:11;;;;;;;11.85;8.35;;;6.40;67.90;;;;;;4984456;28;20033;-62
2023/03/03 02:10:37;;;;;;;12.02;8.75;;;6.40;67.90;;;;;;4978294;28;20034;-62
2023/03/03 02:13:03;;;;;;;11.60;9.02;;;6.30;68.00;;;;;;4974548;28;20067;-62
2023/03/03 02:15:37;;;;;;;13.07;9.38;;;6.30;68.20;;;;;;4983458;28;20054;-55
2023/03/03 02:18:05;;;;;;;12.55;9.32;;;6.30;68.40;;;;;;4975997;28;20932;-56
2023/03/03 02:20:56;;;;;;;11.93;9.50;;;6.30;68.20;;;;;;4966058;28;20035;-62
2023/03/03 02:23:46;;;;;;;12.32;8.65;;;6.30;68.20;;;;;;4977177;28;20054;-63
2023/03/03 02:26:14;;;;;;;13.98;9.70;;;6.40;68.30;;;;;;4977854;28;20026;-62
2023/03/03 02:28:41;;;;;;;10.88;7.97;;;6.30;68.20;;;;;;4978881;28;20532;-62
2023/03/03 02:31:14;;;;;;;13.20;9.20;;;6.30;68.10;;;;;;4985392;28;20438;-49
2023/03/03 02:33:41;;;;;;;10.52;9.23;;;6.40;68.20;;;;;;4979202;28;20477;-50
2023/03/03 02:36:12;;;;;;;11.52;8.88;;;6.40;68.00;;;;;;4961013;28;20053;-59
2023/03/03 02:39:02;;;;;;;12.20;9.13;;;6.30;68.00;;;;;;4982543;28;20132;-60
2023/03/03 02:41:57;;;;;;;10.43;8.40;;;6.30;68.10;;;;;;4976815;28;20038;-62
2023/03/03 02:44:26;;;;;;;13.80;9.65;;;6.20;68.20;;;;;;4973299;28;20046;-62
2023/03/03 02:46:53;;;;;;;13.10;9.93;;;6.20;68.30;;;;;;4967573;28;20122;-62
2023/03/03 02:49:22;;;;;;;11.85;9.18;;;6.20;68.40;;;;;;4962704;28;20035;-62
2023/03/03 02:51:48;;;;;;;14.05;9.90;;;6.20;68.40;;;;;;4969643;28;20035;-62
2023/03/03 02:54:16;;;;;;;12.13;8.95;;;6.20;68.40;;;;;;4976817;28;20035;-62
2023/03/03 02:56:42;;;;;;;11.48;8.63;;;6.20;68.40;;;;;;4979943;28;20121;-60
2023/03/03 02:59:08;;;;;;;10.40;8.45;;;6.30;68.30;;;;;;4974366;28;20019;-59
2023/03/03 03:01:37;;;;;;;11.77;9.40;;;6.30;68.20;;;;;;4983324;28;20441;-60
2023/03/03 03:04:09;;;;;;;10.15;8.95;;;6.30;68.20;;;;;;4976356;28;20450;-59
2023/03/03 03:06:35;;;;;;;;;;;6.20;68.20;;;;;;4974880;28;20026;-62
2023/03/03 03:09:00;;;;;;;11.27;9.07;;;6.20;68.10;;;;;;4980050;28;20380;-61
2023/03/03 03:11:26;;;;;;;12.93;9.60;;;6.20;68.40;;;;;;4976793;28;20066;-60
2023/03/03 03:13:52;;;;;;;10.52;7.57;;;6.20;68.40;;;;;;4976059;28;20856;-59
2023/03/03 03:16:18;;;;;;;12.65;9.25;;;6.10;68.40;;;;;;4975024;28;20030;-60
2023/03/03 03:18:44;;;;;;;11.98;8.82;;;6.20;68.40;;;;;;4977198;28;20493;-60
2023/03/03 03:21:12;;;;;;;12.15;9.15;;;6.20;68.50;;;;;;4969643;28;20042;-52
2023/03/03 03:23:38;;;;;;;10.27;8.35;;;6.20;68.50;;;;;;4978938;28;20049;-56
2023/03/03 03:26:05;;;;;;;11.00;8.90;;;6.20;68.30;;;;;;4975738;28;20783;-60
2023/03/03 03:28:31;;;;;;;11.45;9.13;;;6.20;68.20;;;;;;4976299;28;20027;-60
2023/03/03 03:30:57;;;;;;;9.13;7.43;;;6.20;68.20;;;;;;4986700;28;20042;-60
2023/03/03 03:33:24;;;;;;;12.27;9.65;;;6.10;68.30;;;;;;4978377;28;20369;-60
2023/03/03 03:35:49;;;;;;;10.43;8.05;;;6.10;68.30;;;;;;4977656;28;20062;-59
2023/03/03 03:38:15;;;;;;;9.73;7.60;;;6.10;68.40;;;;;;4976591;28;20100;-60
2023/03/03 03:40:42;;;;;;;12.70;9.55;;;6.10;68.40;;;;;;4981844;28;20086;-61
2023/03/03 03:43:08;;;;;;;10.27;8.65;;;6.10;68.30;;;;;;4980221;28;20089;-62
2023/03/03 03:45:34;;;;;;;10.40;7.90;;;6.10;68.20;;;;;;4969273;28;20042;-61
2023/03/03 03:47:59;;;;;;;9.75;8.18;;;6.10;68.20;;;;;;4968903;28;20035;-62
2023/03/03 03:50:25;;;;;;;10.95;7.57;;;6.10;68.10;;;;;;4979996;28;20049;-60
2023/03/03 03:52:51;;;;;;;10.85;8.82;;;6.00;68.20;;;;;;4978722;28;20038;-60
2023/03/03 03:55:17;;;;;;;10.43;8.15;;;6.00;68.20;;;;;;4966736;28;20027;-59
2023/03/03 03:57:43;;;;;;;11.55;8.80;;;6.00;68.40;;;;;;4978721;28;20039;-59
2023/03/03 04:00:10;;;;;;;10.60;8.00;;;6.00;68.40;;;;;;4987761;28;20117;-59
2023/03/03 04:02:36;;;;;;;11.20;8.23;;;6.00;68.30;;;;;;4977128;28;20053;-59
2023/03/03 04:05:02;;;;;;;11.05;8.48;;;5.90;68.30;;;;;;4977370;28;20422;-60
2023/03/03 04:07:28;;;;;;;12.98;9.35;;;6.00;68.40;;;;;;4975698;28;20069;-52
2023/03/03 04:09:54;;;;;;;12.65;9.27;;;6.00;68.40;;;;;;4980318;28;20489;-55
2023/03/03 04:12:19;;;;;;;13.90;9.57;;;6.00;68.50;;;;;;4975699;28;20038;-61
2023/03/03 04:14:45;;;;;;;10.93;8.13;;;6.00;68.40;;;;;;4974224;28;20035;-61
2023/03/03 04:17:23;;;;;;;11.93;8.50;;;6.00;68.30;;;;;;4969219;28;20023;-61
2023/03/03 04:19:51;;;;;;;11.25;7.88;;;6.00;68.30;;;;;;4970512;28;20055;-60
2023/03/03 04:22:16;;;;;;;12.60;8.63;;;6.00;68.40;;;;;;4977072;28;20050;-62
2023/03/03 04:24:42;;;;;;;11.32;9.30;;;6.00;68.40;;;;;;4984703;28;20049;-59
2023/03/03 04:27:08;;;;;;;12.50;9.90;;;5.90;68.40;;;;;;4977157;28;20042;-59
2023/03/03 04:29:34;;;;;;;13.10;9.13;;;5.90;68.50;;;;;;4974028;28;20030;-59
2023/03/03 04:32:00;;;;;;;12.18;9.45;;;5.90;68.60;;;;;;4985946;28;20101;-60
2023/03/03 04:34:25;;;;;;;12.35;9.43;;;5.90;68.60;;;;;;4979808;28;20461;-60
2023/03/03 04:36:51;;;;;;;14.40;10.27;;;5.90;68.50;;;;;;4974531;28;20043;-58
2023/03/03 04:39:17;;;;;;;14.38;10.10;;;5.90;68.60;;;;;;4974450;28;20073;-61
2023/03/03 04:41:43;;;;;;;15.52;10.50;;;5.90;68.70;;;;;;4980132;28;20113;-62
2023/03/03 04:44:09;;;;;;;12.57;9.23;;;5.90;68.70;;;;;;4977981;28;20461;-62
2023/03/03 04:46:34;;;;;;;12.93;9.77;;;5.90;68.60;;;;;;4967919;28;20034;-62
2023/03/03 04:49:00;;;;;;;15.00;10.68;;;5.90;68.60;;;;;;4973522;28;20062;-62
2023/03/03 04:51:26;;;;;;;15.35;10.35;;;5.80;68.70;;;;;;4979320;28;20479;-54
2023/03/03 04:53:51;;;;;;;14.68;10.40;;;5.90;68.80;;;;;;4975441;28;20030;-57
2023/03/03 04:56:17;;;;;;;13.68;10.55;;;5.90;68.80;;;;;;4973462;28;20030;-60
2023/03/03 04:58:43;;;;;;;15.40;11.55;;;5.90;68.80;;;;;;4973593;28;20037;-60
2023/03/03 05:01:13;;;;;;;21.48;13.52;;;5.90;68.90;;;;;;4979503;28;20382;-62
2023/03/03 05:03:39;;;;;;;14.90;10.88;;;5.90;68.90;;;;;;4972691;28;20026;-62
2023/03/03 05:06:05;;;;;;;14.35;11.02;;;5.90;68.90;;;;;;4975381;28;20461;-62
2023/03/03 05:08:30;;;;;;;14.93;10.98;;;5.90;68.80;;;;;;4982937;28;20038;-61
2023/03/03 05:10:58;;;;;;;13.00;10.48;;;5.90;68.80;;;;;;4973637;28;20046;-61
2023/03/03 05:13:26;;;;;;;15.30;11.05;;;5.80;68.80;;;;;;4971965;28;20417;-60
2023/03/03 05:15:56;;;;;;;16.10;12.00;;;5.80;68.70;;;;;;4976263;28;20488;-60
2023/03/03 05:18:23;;;;;;;15.00;10.47;;;5.90;68.90;;;;;;4960379;28;20062;-60
2023/03/03 05:20:50;;;;;;;14.18;11.38;;;5.80;68.80;;;;;;4972153;28;20391;-59
2023/03/03 05:23:17;;;;;;;16.45;11.18;;;5.80;68.80;;;;;;4976474;28;20592;-60
2023/03/03 05:25:44;;;;;;;17.88;11.73;;;5.90;68.80;;;;;;4978659;28;20377;-62
2023/03/03 05:28:09;;;;;;;15.02;11.75;;;5.90;68.80;;;;;;4998225;28;20429;-61
2023/03/03 05:30:36;;;;;;;16.80;11.73;;;5.90;68.80;;;;;;4984770;28;20084;-62
2023/03/03 05:33:03;;;;;;;15.07;10.95;;;5.90;68.70;;;;;;4970868;28;20034;-62
2023/03/03 05:35:29;;;;;;;14.65;10.85;;;6.00;68.60;;;;;;4976096;28;20023;-61
2023/03/03 05:37:56;;;;;;;15.80;11.00;;;6.00;68.50;;;;;;4974085;28;20053;-62
2023/03/03 05:40:23;;;;;;;16.35;12.02;;;5.90;68.40;;;;;;4980978;28;20026;-52
2023/03/03 05:42:49;;;;;;;16.08;11.75;;;6.00;68.60;;;;;;4973792;28;20109;-53
2023/03/03 05:45:15;;;;;;;14.75;11.15;;;6.00;68.60;;;;;;4970871;28;20110;-52
2023/03/03 05:47:41;;;;;;;13.20;9.98;;;5.90;68.60;;;;;;4970906;28;20035;-53
2023/03/03 05:50:07;;;;;;;14.27;10.43;;;6.00;68.60;;;;;;4970925;28;20145;-56
2023/03/03 05:52:32;;;;;;;13.90;11.30;;;6.00;68.50;;;;;;4971895;28;20038;-53
2023/03/03 05:54:58;;;;;;;13.63;9.75;;;6.10;68.50;;;;;;4970762;28;20141;-54
2023/03/03 05:57:24;;;;;;;11.70;9.57;;;6.10;68.40;;;;;;4980227;28;20037;-52
2023/03/03 05:59:49;;;;;;;15.43;10.80;;;6.10;68.30;;;;;;4979990;28;20035;-53
2023/03/03 06:02:15;;;;;;;12.68;9.48;;;6.10;68.40;;;;;;4977142;28;20030;-56
2023/03/03 06:04:40;;;;;;;12.32;9.52;;;6.10;68.30;;;;;;4981729;28;20026;-52
2023/03/03 06:07:06;;;;;;;12.70;9.40;;;6.10;68.40;;;;;;4975379;28;20038;-54
2023/03/03 06:09:32;;;;;;;16.30;11.90;;;6.10;68.40;;;;;;4973403;28;20098;-53
2023/03/03 06:11:58;;;;;;;16.67;12.32;;;6.20;68.40;;;;;;4970303;28;20069;-62
2023/03/03 06:14:24;;;;;;;16.98;12.07;;;6.10;68.50;;;;;;4967395;28;20050;-62
2023/03/03 06:16:50;;;;;;;16.48;12.15;;;6.10;68.40;;;;;;4968932;28;20049;-62
2023/03/03 06:19:16;;;;;;;16.23;12.52;;;6.10;68.50;;;;;;4970258;28;20022;-63
2023/03/03 06:21:41;;;;;;;17.52;12.30;;;6.20;68.60;;;;;;4963126;28;20050;-61
2023/03/03 06:24:08;;;;;;;17.45;12.90;;;6.20;68.60;;;;;;4976503;28;20045;-60
2023/03/03 06:26:33;;;;;;;16.13;11.82;;;6.20;68.50;;;;;;4976346;28;20030;-61
2023/03/03 06:28:59;;;;;;;19.52;13.88;;;6.20;68.50;;;;;;4974599;28;20109;-61
2023/03/03 06:31:26;;;;;;;17.50;12.82;;;6.20;68.50;;;;;;4970921;28;20042;-61
2023/03/03 06:33:53;;;;;;;15.23;11.30;;;6.20;68.40;;;;;;4975729;28;20020;-60
2023/03/03 06:36:19;;;;;;;14.95;10.88;;;6.20;68.40;;;;;;4964069;28;20031;-60
2023/03/03 06:38:45;;;;;;;20.17;12.30;;;6.30;68.40;;;;;;4970258;28;20034;-60
2023/03/03 06:41:11;;;;;;;15.10;10.93;;;6.20;68.30;;;;;;4962980;28;20039;-61
2023/03/03 06:43:37;;;;;;;16.27;12.18;;;6.20;68.40;;;;;;4968340;28;20031;-60
2023/03/03 06:46:05;;;;;;;14.20;10.43;;;6.30;68.40;;;;;;4969105;28;21537;-61
2023/03/03 06:48:33;;;;;;;15.38;11.05;;;6.30;68.40;;;;;;4970531;28;20437;-59
2023/03/03 06:51:21;;;;;;;15.80;11.25;;;6.30;68.50;;;;;;4966674;28;20410;-59
2023/03/03 06:53:49;;;;;;;15.32;10.52;;;6.30;68.40;;;;;;4967572;28;20035;-59
2023/03/03 06:56:15;;;;;;;17.08;12.23;;;6.20;68.40;;;;;;4976423;28;20034;-59
2023/03/03 06:58:41;;;;;;;16.55;11.75;;;6.20;68.40;;;;;;4973651;28;20058;-58
2023/03/03 07:01:15;;;;;;;15.57;12.23;;;6.20;68.60;;;;;;4969842;28;20562;-59
2023/03/03 07:03:40;;;;;;;22.42;15.20;;;6.20;68.60;;;;;;4974355;28;20038;-60
2023/03/03 07:06:36;;;;;;;19.13;13.38;;;6.20;68.70;;;;;;4977134;28;20382;-59
2023/03/03 07:09:04;;;;;;;18.52;13.25;;;6.30;68.60;;;;;;4957820;28;20031;-60
2023/03/03 07:11:30;;;;;;;19.13;13.30;;;6.30;68.60;;;;;;4964894;28;20109;-60
2023/03/03 07:13:56;;;;;;;19.02;12.30;;;6.30;68.50;;;;;;4968289;28;20046;-60
2023/03/03 07:16:26;;;;;;;18.45;13.23;;;6.30;68.50;;;;;;4971352;28;20027;-61
2023/03/03 07:18:59;;;;;;;18.13;13.77;;;6.30;68.60;;;;;;4970083;28;20065;-60
2023/03/03 07:21:32;;;;;;;20.38;13.55;;;6.40;68.60;;;;;;4966054;28;20121;-60
2023/03/03 07:24:00;;;;;;;18.50;12.80;;;6.40;68.60;;;;;;4976053;28;20501;-60
2023/03/03 07:26:31;;;;;;;16.17;11.02;;;6.40;68.60;;;;;;4972814;28;20035;-60
2023/03/03 07:29:26;;;;;;;14.73;11.38;;;6.50;68.40;;;;;;4969831;28;20041;-60
2023/03/03 07:31:57;;;;;;;13.73;10.05;;;6.50;68.20;;;;;;4972001;28;20059;-58
2023/03/03 07:34:29;;;;;;;14.70;10.95;;;6.50;68.40;;;;;;4966865;28;20445;-58
2023/03/03 07:37:01;;;;;;;16.25;11.93;;;6.50;68.50;;;;;;4969497;28;20062;-62
2023/03/03 07:39:26;;;;;;;;;;;6.50;68.40;;;;;;4963530;28;20090;-58
2023/03/03 07:42:08;;;;;;;12.48;9.10;;;6.50;68.30;;;;;;4968684;28;19914;-59
2023/03/03 07:44:36;;;;;;;13.00;9.55;;;6.50;68.40;;;;;;4963664;28;20026;-59
2023/03/03 07:47:24;;;;;;;15.23;10.15;;;6.60;68.40;;;;;;4969311;28;20027;-59
2023/03/03 07:49:52;;;;;;;15.27;11.05;;;6.60;68.30;;;;;;4971608;28;20716;-60
2023/03/03 07:52:26;;;;;;;15.80;11.23;;;6.60;68.30;;;;;;4963739;28;20035;-61
2023/03/03 07:54:53;;;;;;;15.18;11.18;;;6.70;68.40;;;;;;4962089;28;20145;-60
2023/03/03 07:57:30;;;;;;;18.15;12.43;;;6.80;68.40;;;;;;4966760;28;20030;-61
2023/03/03 08:00:28;;;;;;;16.10;11.73;;;6.90;68.20;;;;;;4962924;28;20038;-59
2023/03/03 08:03:09;;;;;;;18.40;12.68;;;6.90;68.10;;;;;;4961659;28;20042;-60
2023/03/03 08:05:40;;;;;;;18.65;13.13;;;7.00;67.90;;;;;;4959082;28;20038;-60
2023/03/03 08:08:08;;;;;;;17.45;12.98;;;7.10;67.70;;;;;;4968459;28;20037;-57
2023/03/03 08:10:51;;;;;;;18.15;12.57;;;7.10;67.60;;;;;;4950998;28;20552;-61
2023/03/03 08:13:41;;;;;;;16.13;11.18;;;7.20;67.60;;;;;;4961255;28;20038;-60
2023/03/03 08:16:10;;;;;;;19.00;12.75;;;7.20;67.40;;;;;;4961835;28;20039;-59
2023/03/03 08:18:46;;;;;;;15.82;11.55;;;7.30;67.40;;;;;;4956709;28;20042;-61
2023/03/03 08:21:18;;;;;;;13.65;10.20;;;7.30;67.40;;;;;;4967824;28;20501;-60
2023/03/03 08:23:44;;;;;;;19.30;13.10;;;7.30;67.40;;;;;;4968019;28;20150;-58
2023/03/03 08:26:12;;;;;;;18.92;12.77;;;7.30;67.30;;;;;;4968278;28;20494;-59
2023/03/03 08:28:38;;;;;;;13.27;10.73;;;7.40;67.30;;;;;;4960389;28;20446;-60
2023/03/03 08:31:04;;;;;;;16.23;12.60;;;7.40;67.40;;;;;;4959570;28;20034;-60
2023/03/03 08:33:31;;;;;;;17.20;11.32;;;7.40;67.30;;;;;;4948705;28;20441;-59
2023/03/03 08:35:57;;;;;;;16.50;12.02;;;7.50;67.30;;;;;;4966291;28;21849;-60
2023/03/03 08:38:22;;;;;;;16.50;11.85;;;7.60;67.20;;;;;;4959792;28;20039;-60
2023/03/03 08:40:49;;;;;;;14.35;10.48;;;7.60;67.00;;;;;;4957913;28;20042;-60
2023/03/03 08:43:20;;;;;;;18.77;12.30;;;7.60;66.80;;;;;;4959690;28;20817;-61
2023/03/03 08:45:51;;;;;;;14.77;10.95;;;7.60;66.80;;;;;;4961930;28;20829;-61
2023/03/03 08:48:19;;;;;;;16.95;12.40;;;7.70;67.00;;;;;;4958331;28;20109;-59
2023/03/03 08:50:45;;;;;;;13.65;10.93;;;7.70;67.00;;;;;;4960976;28;20041;-59
2023/03/03 08:53:13;;;;;;;15.45;10.93;;;7.80;66.90;;;;;;4955576;28;20027;-60
2023/03/03 08:55:40;;;;;;;14.90;10.68;;;7.80;66.50;;;;;;4952274;28;20038;-61
2023/03/03 08:58:06;;;;;;;13.30;10.07;;;7.80;66.60;;;;;;4961853;28;20031;-59
2023/03/03 09:00:32;;;;;;;13.02;10.02;;;7.80;66.70;;;;;;4958251;28;20097;-61
2023/03/03 09:02:58;;;;;;;15.32;10.60;;;7.80;66.60;;;;;;4955137;28;20038;-63
2023/03/03 09:05:24;;;;;;;14.05;10.00;;;7.90;66.60;;;;;;4959857;28;20035;-59
2023/03/03 09:07:51;;;;;;;16.15;11.18;;;7.90;66.70;;;;;;4957419;28;20027;-60
2023/03/03 09:10:26;;;;;;;14.60;11.43;;;7.90;66.50;;;;;;4967385;28;20681;-61
2023/03/03 09:12:55;;;;;;;14.45;10.45;;;8.00;66.60;;;;;;4967483;28;20081;-61
2023/03/03 09:15:30;;;;;;;16.00;11.43;;;8.00;66.50;;;;;;4964172;28;20051;-61
2023/03/03 09:18:07;;;;;;;15.60;10.75;;;8.10;66.40;;;;;;4956686;28;20133;-58
2023/03/03 09:20:47;;;;;;;14.73;10.75;;;8.20;66.40;;;;;;4960613;28;20045;-60
2023/03/03 09:23:33;;;;;;;13.73;10.32;;;8.20;65.80;;;;;;4961890;28;20046;-60
2023/03/03 09:26:17;;;;;;;13.88;10.73;;;8.30;65.80;;;;;;4953787;28;20042;-60
2023/03/03 09:28:43;;;;;;;12.93;9.88;;;8.30;65.80;;;;;;4964315;28;20050;-62
2023/03/03 09:31:24;;;;;;;13.40;9.43;;;8.40;65.70;;;;;;4957556;28;20053;-60
2023/03/03 09:33:50;;;;;;;14.15;10.07;;;8.50;65.10;;;;;;4953899;28;20501;-60
2023/03/03 09:36:22;;;;;;;15.35;10.65;;;8.50;64.90;;;;;;4959413;28;20039;-60
2023/03/03 09:38:52;;;;;;;15.80;10.48;;;8.50;64.70;;;;;;4953211;28;20035;-61
2023/03/03 09:41:39;;;;;;;15.93;10.65;;;8.50;64.80;;;;;;4955288;28;20039;-62
2023/03/03 09:44:21;;;;;;;10.45;8.05;;;8.50;64.70;;;;;;4958345;28;20057;-61
2023/03/03 09:46:56;;;;;;;10.52;8.75;;;8.50;64.20;;;;;;4956784;28;20050;-60
2023/03/03 09:49:41;;;;;;;10.75;8.02;;;8.50;64.10;;;;;;4950169;28;20242;-61
2023/03/03 09:52:30;;;;;;;8.98;6.50;;;8.50;64.00;;;;;;4962647;28;20041;-59
2023/03/03 09:55:37;;;;;;;11.98;8.65;;;8.40;63.90;;;;;;4965720;28;20130;-60
2023/03/03 09:58:22;;;;;;;11.73;8.52;;;8.40;64.00;;;;;;4954129;28;20038;-58
2023/03/03 10:01:29;;;;;;;11.77;8.73;;;8.40;64.40;;;;;;4959122;28;20173;-59
2023/03/03 10:04:12;;;;;;;10.52;8.20;;;8.40;64.40;;;;;;4937636;28;20039;-60
2023/03/03 10:06:58;;;;;;;9.98;7.47;;;8.50;64.50;;;;;;4954957;28;20401;-60
2023/03/03 10:09:40;;;;;;;10.90;8.40;;;8.50;64.00;;;;;;4950596;28;20039;-60
2023/03/03 10:12:18;;;;;;;;;;;8.60;64.10;;;;;;4965783;28;20113;-58
2023/03/03 10:15:09;;;;;;;13.10;9.07;;;8.50;64.00;;;;;;4961160;28;19976;-60
2023/03/03 10:17:48;;;;;;;14.68;9.88;;;8.50;64.40;;;;;;4947764;28;20066;-58
2023/03/03 10:20:25;;;;;;;12.82;9.57;;;8.60;64.40;;;;;;4947833;28;20037;-61
2023/03/03 10:22:55;;;;;;;12.20;9.15;;;8.70;64.20;;;;;;4953108;28;20055;-64
2023/03/03 10:25:45;;;;;;;10.88;8.77;;;8.70;64.10;;;;;;4955274;28;20073;-59
2023/03/03 10:28:40;;;;;;;11.82;9.57;;;8.70;64.00;;;;;;4952706;28;20049;-59
2023/03/03 10:31:23;;;;;;;13.48;9.38;;;8.70;63.60;;;;;;4954870;28;20648;-57
2023/03/03 10:34:03;;;;;;;13.68;10.13;;;8.70;63.90;;;;;;4960430;28;20123;-61
2023/03/03 10:36:50;;;;;;;14.07;9.30;;;8.70;63.90;;;;;;4949355;28;20042;-57
2023/03/03 10:39:28;;;;;;;13.70;9.65;;;8.70;64.00;;;;;;4954502;28;20035;-58
2023/03/03 10:42:14;;;;;;;11.35;8.98;;;8.80;64.20;;;;;;4961538;28;20034;-60
2023/03/03 10:45:11;;;;;;;12.98;9.10;;;8.80;64.10;;;;;;4953072;28;20062;-59
2023/03/03 10:48:04;;;;;;;13.80;9.50;;;8.80;63.50;;;;;;4948499;28;20031;-59
2023/03/03 10:50:43;;;;;;;10.65;8.35;;;8.80;63.60;;;;;;4955475;28;20043;-59
2023/03/03 10:53:17;;;;;;;12.73;9.63;;;8.80;63.80;;;;;;4952008;28;20150;-58
2023/03/03 10:56:02;;;;;;;16.17;10.95;;;8.90;63.90;;;;;;4955953;28;20141;-59
2023/03/03 10:58:45;;;;;;;13.05;9.50;;;8.80;63.80;;;;;;4962045;28;20249;-60
2023/03/03 11:01:25;;;;;;;12.77;8.50;;;8.80;63.50;;;;;;4955954;28;20034;-60
2023/03/03 11:04:06;;;;;;;14.73;8.85;;;8.80;63.40;;;;;;4965850;28;20038;-61
2023/03/03 11:06:57;;;;;;;11.70;8.90;;;8.70;63.30;;;;;;4957563;28;20023;-60
2023/03/03 11:09:54;;;;;;;10.95;7.68;;;8.50;63.40;;;;;;4953567;28;20030;-58
2023/03/03 11:12:23;;;;;;;17.95;11.73;;;8.50;63.60;;;;;;4960058;28;20548;-59
2023/03/03 11:14:51;;;;;;;13.88;8.82;;;8.30;63.80;;;;;;4960840;28;20122;-61
2023/03/03 11:17:59;;;;;;;13.55;9.75;;;8.30;64.00;;;;;;4956939;28;20045;-59
2023/03/03 11:20:42;;;;;;;13.85;9.68;;;8.30;63.80;;;;;;4943027;28;20047;-59
2023/03/03 11:23:41;;;;;;;13.85;9.55;;;8.20;63.70;;;;;;4963765;28;20062;-60
2023/03/03 11:26:26;;;;;;;14.20;10.45;;;8.10;63.70;;;;;;4966838;28;20109;-58
2023/03/03 11:29:22;;;;;;;12.68;9.98;;;8.00;63.80;;;;;;4957715;28;20622;-59
2023/03/03 11:31:55;;;;;;;13.55;9.25;;;8.00;63.90;;;;;;4962313;28;20257;-60
2023/03/03 11:34:36;;;;;;;10.73;8.35;;;7.90;64.00;;;;;;4958405;28;20034;-60
2023/03/03 11:37:08;;;;;;;14.95;9.68;;;7.80;64.10;;;;;;4964506;28;20034;-60
2023/03/03 11:39:35;;;;;;;12.70;9.60;;;7.80;64.10;;;;;;4956922;28;20106;-60
2023/03/03 11:42:01;;;;;;;11.30;8.60;;;7.80;64.10;;;;;;4965720;28;20023;-60
2023/03/03 11:44:38;;;;;;;11.02;8.65;;;7.80;64.10;;;;;;4964264;28;20055;-60
2023/03/03 11:47:22;;;;;;;13.38;9.10;;;7.80;64.20;;;;;;4964837;28;20699;-60
2023/03/03 11:50:02;;;;;;;15.57;10.50;;;7.80;64.20;;;;;;4960886;28;20520;-59
2023/03/03 11:52:54;;;;;;;14.60;10.80;;;7.80;64.20;;;;;;4956162;28;20042;-59
2023/03/03 11:55:36;;;;;;;12.05;9.30;;;7.90;64.40;;;;;;4964743;28;20040;-59
2023/03/03 11:58:21;;;;;;;11.32;8.80;;;7.90;64.30;;;;;;4964114;28;20034;-59
2023/03/03 12:01:28;;;;;;;9.18;7.32;;;8.00;64.20;;;;;;4968610;28;20034;-59
2023/03/03 12:04:03;;;;;;;11.23;8.85;;;8.10;64.00;;;;;;4940085;28;20038;-59
2023/03/03 12:07:01;;;;;;;9.75;8.30;;;8.20;63.80;;;;;;4955488;28;20049;-58
2023/03/03 12:09:29;;;;;;;12.65;8.75;;;8.30;63.50;;;;;;4959560;28;20125;-60
2023/03/03 12:12:07;;;;;;;10.68;8.48;;;8.40;63.20;;;;;;4961410;28;20051;-60
2023/03/03 12:15:03;;;;;;;14.13;9.85;;;8.50;63.00;;;;;;4961655;28;21197;-59
2023/03/03 12:17:47;;;;;;;11.90;8.40;;;8.60;62.90;;;;;;4965091;28;20110;-60
2023/03/03 12:20:47;;;;;;;13.90;9.75;;;8.60;62.40;;;;;;4967778;28;20031;-61
2023/03/03 12:23:29;;;;;;;11.77;9.82;;;8.60;62.30;;;;;;4898864;28;20059;-60
2023/03/03 12:26:18;;;;;;;13.73;9.57;;;8.70;62.20;;;;;;4956783;28;20456;-59
2023/03/03 12:28:53;;;;;;;12.15;9.45;;;8.80;62.20;;;;;;4962164;28;20049;-59
2023/03/03 12:31:25;;;;;;;12.90;9.15;;;8.70;61.80;;;;;;4962570;28;20074;-61
2023/03/03 12:34:24;;;;;;;11.50;8.95;;;8.80;61.80;;;;;;4962174;28;20038;-60
2023/03/03 12:37:10;;;;;;;12.10;9.15;;;8.80;61.40;;;;;;4937707;28;20046;-60
2023/03/03 12:39:45;;;;;;;12.38;9.35;;;8.80;61.50;;;;;;4959660;28;20450;-58
2023/03/03 12:42:31;;;;;;;12.52;9.60;;;8.80;61.60;;;;;;4965899;28;20529;-59
2023/03/03 12:45:19;;;;;;;12.23;9.07;;;8.80;61.40;;;;;;4958132;28;20030;-59
2023/03/03 12:47:58;;;;;;;13.88;9.80;;;8.80;61.40;;;;;;4964930;28;20089;-60
2023/03/03 12:50:44;;;;;;;13.68;9.63;;;8.90;61.60;;;;;;4965905;28;20161;-61
2023/03/03 12:53:27;;;;;;;10.30;8.13;;;8.90;60.90;;;;;;4962652;28;20102;-62
2023/03/03 12:55:59;;;;;;;13.00;10.38;;;8.90;61.10;;;;;;4966543;28;20046;-61
2023/03/03 12:59:02;;;;;;;13.27;10.20;;;8.90;61.10;;;;;;4958926;28;20127;-60
2023/03/03 13:02:06;;;;;;;12.43;9.90;;;8.80;60.90;;;;;;4967359;28;20031;-59
2023/03/03 13:04:35;;;;;;;14.15;10.20;;;8.80;61.00;;;;;;4948573;28;20448;-60
2023/03/03 13:07:21;;;;;;;13.05;10.45;;;8.80;61.00;;;;;;4966226;28;20114;-60
2023/03/03 13:10:11;;;;;;;14.18;10.65;;;8.80;61.10;;;;;;4960850;28;20038;-59
2023/03/03 13:13:06;;;;;;;13.15;9.93;;;8.80;61.10;;;;;;4957675;28;20038;-59